Time;durP1;ratioP1;P1;durP2;ratioP2;P2;SDS_P1;SDS_P2;PMS_P1;PMS_P2;Temp;Humidity;BMP_temperature;BMP_pressure;BME280_temperature;BME280_humidity;BME280_pressure;Samples;Min_cycle;Max_cycle;Signal;HPM_P1;HPM_P2
2021/08/18 00:00:35;;;;;;;18.37;17.37;;;23.90;88.60;;;;;;2606553;39;20697;-59
2021/08/18 00:03:04;;;;;;;19.67;18.43;;;23.90;88.70;;;;;;2607199;54;20372;-59
2021/08/18 00:05:33;;;;;;;20.63;19.27;;;23.90;88.60;;;;;;2606258;39;20672;-59
2021/08/18 00:08:03;;;;;;;21.13;19.70;;;23.90;88.60;;;;;;2605667;54;21089;-59
2021/08/18 00:10:35;;;;;;;19.60;18.40;;;23.90;88.50;;;;;;2607019;54;21166;-58
2021/08/18 00:13:05;;;;;;;20.00;18.80;;;23.90;88.60;;;;;;2607558;54;20395;-58
2021/08/18 00:15:35;;;;;;;19.57;18.17;;;23.90;88.60;;;;;;2605679;54;20514;-55
2021/08/18 00:18:04;;;;;;;21.27;19.77;;;23.90;88.60;;;;;;2605845;51;20857;-58
2021/08/18 00:20:34;;;;;;;18.77;17.47;;;23.90;88.50;;;;;;2605509;54;20506;-59
2021/08/18 00:23:03;;;;;;;19.33;18.13;;;23.90;88.50;;;;;;2606107;54;20696;-59
2021/08/18 00:25:36;;;;;;;19.90;18.57;;;23.90;88.60;;;;;;2606590;54;20399;-59
2021/08/18 00:28:05;;;;;;;18.60;17.40;;;23.90;88.50;;;;;;2606306;54;20390;-58
2021/08/18 00:30:34;;;;;;;20.27;18.97;;;23.90;88.60;;;;;;2606831;39;20746;-58
2021/08/18 00:33:03;;;;;;;19.73;18.47;;;23.90;88.50;;;;;;2605681;54;20402;-58
2021/08/18 00:35:32;;;;;;;20.00;18.70;;;23.90;88.50;;;;;;2603275;54;20443;-57
2021/08/18 00:38:02;;;;;;;19.90;18.60;;;23.90;88.60;;;;;;2606499;54;20413;-58
2021/08/18 00:40:31;;;;;;;19.70;18.50;;;23.90;88.60;;;;;;2606667;54;20916;-57
2021/08/18 00:43:03;;;;;;;19.67;18.47;;;23.90;88.60;;;;;;2606980;54;20387;-59
2021/08/18 00:45:32;;;;;;;19.93;18.63;;;23.90;88.70;;;;;;2607925;39;20621;-57
2021/08/18 00:48:01;;;;;;;19.87;18.57;;;23.90;88.70;;;;;;2608285;39;20732;-58
2021/08/18 00:50:32;;;;;;;20.93;19.53;;;23.90;88.80;;;;;;2606414;54;21175;-58
2021/08/18 00:53:01;;;;;;;20.03;18.63;;;23.90;88.80;;;;;;2604458;47;20494;-59
2021/08/18 00:55:40;;;;;;;20.73;19.30;;;23.90;88.90;;;;;;2605916;39;20647;-59
2021/08/18 00:58:12;;;;;;;20.83;19.53;;;23.90;88.90;;;;;;2606746;54;20928;-57
2021/08/18 01:00:41;;;;;;;21.47;20.07;;;23.90;89.00;;;;;;2608436;39;20616;-59
2021/08/18 01:03:10;;;;;;;20.80;19.30;;;23.90;89.10;;;;;;2608241;54;21107;-58
2021/08/18 01:05:40;;;;;;;20.33;18.80;;;23.90;89.10;;;;;;2607814;54;20444;-57
2021/08/18 01:08:09;;;;;;;21.40;20.00;;;23.90;89.20;;;;;;2608224;54;20537;-60
2021/08/18 01:10:39;;;;;;;21.00;19.70;;;23.90;89.20;;;;;;2606525;39;20759;-58
2021/08/18 01:13:11;;;;;;;21.80;20.30;;;23.90;89.20;;;;;;2606596;39;20770;-58
2021/08/18 01:15:40;;;;;;;21.10;19.70;;;23.90;89.40;;;;;;2608019;54;20390;-59
2021/08/18 01:18:10;;;;;;;22.27;20.53;;;23.90;89.40;;;;;;2608676;54;20873;-59
2021/08/18 01:20:41;;;;;;;21.00;19.60;;;23.90;89.40;;;;;;2607504;54;20411;-57
2021/08/18 01:23:12;;;;;;;20.83;19.43;;;23.90;89.50;;;;;;2607039;54;20853;-59
2021/08/18 01:25:43;;;;;;;21.20;19.83;;;23.90;89.50;;;;;;2607949;54;20399;-58
2021/08/18 01:28:17;;;;;;;21.17;19.77;;;23.90;89.60;;;;;;2607089;51;20440;-59
2021/08/18 01:30:48;;;;;;;21.30;19.90;;;23.90;89.50;;;;;;2607713;54;20470;-58
2021/08/18 01:33:19;;;;;;;21.03;19.63;;;23.90;89.60;;;;;;2605467;54;20494;-60
2021/08/18 01:35:50;;;;;;;22.00;20.43;;;23.90;89.60;;;;;;2606229;39;20693;-58
2021/08/18 01:38:22;;;;;;;21.10;19.60;;;23.90;89.60;;;;;;2605199;54;20537;-58
2021/08/18 01:40:54;;;;;;;22.47;20.77;;;23.90;89.70;;;;;;2606007;54;20894;-59
2021/08/18 01:43:25;;;;;;;22.07;20.40;;;23.90;89.80;;;;;;2607573;39;20739;-57
2021/08/18 01:45:57;;;;;;;21.37;19.87;;;23.90;90.20;;;;;;2606635;54;20923;-59
2021/08/18 01:48:29;;;;;;;23.13;21.43;;;23.90;89.80;;;;;;2606067;54;20462;-59
2021/08/18 01:51:00;;;;;;;21.07;19.67;;;23.90;89.90;;;;;;2606027;54;20401;-58
2021/08/18 01:53:31;;;;;;;20.10;18.90;;;23.90;89.90;;;;;;2606425;39;20669;-59
2021/08/18 01:56:02;;;;;;;21.73;20.23;;;23.90;90.00;;;;;;2607551;54;20402;-59
2021/08/18 01:58:32;;;;;;;20.23;18.83;;;23.90;90.00;;;;;;2606542;54;20395;-58
2021/08/18 02:01:05;;;;;;;21.63;19.90;;;23.90;90.00;;;;;;2607251;54;20799;-58
2021/08/18 02:03:36;;;;;;;20.80;19.50;;;23.90;90.00;;;;;;2607009;39;20681;-56
2021/08/18 02:06:05;;;;;;;20.83;19.33;;;23.90;90.00;;;;;;2605857;39;20793;-58
2021/08/18 02:08:35;;;;;;;20.00;18.70;;;23.90;90.00;;;;;;2606187;54;20411;-58
2021/08/18 02:11:05;;;;;;;20.50;19.13;;;23.90;90.00;;;;;;2605614;39;20689;-55
2021/08/18 02:13:34;;;;;;;20.30;18.80;;;23.90;90.10;;;;;;2607229;54;20399;-59
2021/08/18 02:16:07;;;;;;;20.60;19.13;;;23.90;90.10;;;;;;2607037;54;20403;-58
2021/08/18 02:18:36;;;;;;;21.27;19.73;;;23.90;90.00;;;;;;2605421;47;20411;-59
2021/08/18 02:21:06;;;;;;;20.10;18.90;;;23.90;90.10;;;;;;2606728;39;20761;-59
2021/08/18 02:23:35;;;;;;;21.83;20.23;;;23.90;90.10;;;;;;2607898;54;20427;-58
2021/08/18 02:26:04;;;;;;;20.60;19.20;;;23.90;90.10;;;;;;2607635;54;20395;-59
2021/08/18 02:28:33;;;;;;;21.37;19.57;;;23.90;90.10;;;;;;2605172;54;20857;-59
2021/08/18 02:31:02;;;;;;;21.43;20.03;;;23.90;90.10;;;;;;2607870;54;20419;-57
2021/08/18 02:33:34;;;;;;;21.53;20.03;;;23.90;90.10;;;;;;2606820;39;20846;-56
2021/08/18 02:36:03;;;;;;;21.90;20.13;;;23.90;90.20;;;;;;2607197;51;20417;-59
2021/08/18 02:38:33;;;;;;;21.67;20.17;;;23.90;90.20;;;;;;2607396;54;20992;-57
2021/08/18 02:41:02;;;;;;;20.93;19.53;;;23.90;90.20;;;;;;2607277;31;20849;-57
2021/08/18 02:43:31;;;;;;;22.27;20.77;;;23.90;90.10;;;;;;2606560;54;20391;-59
2021/08/18 02:46:00;;;;;;;20.90;19.60;;;23.90;90.10;;;;;;2607210;39;20651;-57
2021/08/18 02:48:30;;;;;;;20.40;19.10;;;23.90;90.20;;;;;;2607134;54;20693;-58
2021/08/18 02:51:02;;;;;;;21.37;19.77;;;23.90;90.20;;;;;;2607603;39;20805;-58
2021/08/18 02:53:31;;;;;;;22.13;20.47;;;23.90;90.20;;;;;;2604536;54;21067;-59
2021/08/18 02:56:00;;;;;;;21.50;19.90;;;23.90;90.20;;;;;;2607723;47;20711;-58
2021/08/18 02:58:30;;;;;;;21.80;20.20;;;23.90;90.20;;;;;;2606208;39;20797;-58
2021/08/18 03:01:00;;;;;;;22.97;21.33;;;23.90;90.20;;;;;;2606910;54;20507;-58
2021/08/18 03:03:29;;;;;;;21.03;19.63;;;23.90;90.30;;;;;;2608045;54;20427;-58
2021/08/18 03:06:01;;;;;;;23.30;21.50;;;23.90;90.30;;;;;;2607556;47;21122;-56
2021/08/18 03:08:30;;;;;;;20.83;19.33;;;23.90;90.30;;;;;;2608100;54;20429;-58
2021/08/18 03:10:59;;;;;;;21.10;19.60;;;23.90;90.30;;;;;;2607169;46;20387;-59
2021/08/18 03:13:29;;;;;;;21.77;20.17;;;23.90;90.30;;;;;;2606311;54;20408;-56
2021/08/18 03:15:58;;;;;;;21.47;19.87;;;23.90;90.30;;;;;;2607418;54;20498;-57
2021/08/18 03:18:27;;;;;;;22.10;20.50;;;23.90;90.30;;;;;;2607649;54;20422;-58
2021/08/18 03:20:57;;;;;;;21.90;20.40;;;23.90;90.30;;;;;;2606573;54;20418;-59
2021/08/18 03:23:29;;;;;;;21.03;19.60;;;23.90;90.40;;;;;;2605970;54;20413;-58
2021/08/18 03:25:58;;;;;;;22.70;20.73;;;23.90;90.40;;;;;;2606950;54;20402;-58
2021/08/18 03:28:27;;;;;;;22.07;20.67;;;23.90;90.40;;;;;;2606177;54;20490;-57
2021/08/18 03:30:56;;;;;;;22.10;20.50;;;23.90;90.40;;;;;;2607336;54;20927;-58
2021/08/18 03:33:25;;;;;;;21.53;19.93;;;23.90;90.40;;;;;;2605248;54;20441;-58
2021/08/18 03:35:55;;;;;;;22.00;20.50;;;23.90;90.40;;;;;;2604798;54;20418;-59
2021/08/18 03:38:24;;;;;;;22.17;20.60;;;23.90;90.40;;;;;;2602108;47;20422;-59
2021/08/18 03:40:56;;;;;;;22.10;20.70;;;23.90;90.50;;;;;;2604248;54;20414;-59
2021/08/18 03:43:25;;;;;;;21.70;20.10;;;23.90;90.50;;;;;;2604764;54;20418;-56
2021/08/18 03:45:54;;;;;;;20.93;19.53;;;23.90;90.50;;;;;;2606749;54;20436;-59
2021/08/18 03:48:23;;;;;;;23.87;20.90;;;23.90;90.50;;;;;;2606019;54;20452;-55
2021/08/18 03:50:52;;;;;;;22.13;20.53;;;23.90;90.50;;;;;;2606834;39;21028;-59
2021/08/18 03:53:21;;;;;;;21.90;20.23;;;23.90;90.50;;;;;;2606515;39;20869;-58
2021/08/18 03:55:51;;;;;;;22.63;21.10;;;23.90;90.60;;;;;;2607017;54;20491;-59
2021/08/18 03:58:22;;;;;;;21.37;19.63;;;23.90;90.50;;;;;;2604912;54;20418;-57
2021/08/18 04:00:52;;;;;;;23.20;21.50;;;23.90;90.50;;;;;;2606172;39;20842;-58
2021/08/18 04:03:21;;;;;;;22.33;20.93;;;23.90;90.50;;;;;;2606931;54;20395;-58
2021/08/18 04:05:50;;;;;;;22.00;20.20;;;23.90;90.60;;;;;;2606273;51;20449;-58
2021/08/18 04:08:19;;;;;;;22.70;20.90;;;23.90;90.60;;;;;;2605249;54;20403;-58
2021/08/18 04:10:48;;;;;;;21.93;20.57;;;23.90;90.60;;;;;;2605091;54;20897;-58
2021/08/18 04:13:17;;;;;;;24.40;22.60;;;23.90;90.60;;;;;;2605528;54;20421;-59
2021/08/18 04:15:49;;;;;;;21.77;20.27;;;23.90;90.60;;;;;;2604246;54;20398;-58
2021/08/18 04:18:18;;;;;;;22.83;21.23;;;23.90;90.60;;;;;;2603431;54;20434;-58
2021/08/18 04:20:48;;;;;;;22.93;21.33;;;23.90;90.60;;;;;;2602711;54;20414;-59
2021/08/18 04:23:17;;;;;;;23.07;21.57;;;23.90;90.60;;;;;;2604518;54;20423;-59
2021/08/18 04:25:46;;;;;;;23.80;22.10;;;23.90;90.60;;;;;;2604060;54;20892;-59
2021/08/18 04:28:15;;;;;;;22.90;21.20;;;23.90;90.70;;;;;;2602433;39;20738;-58
2021/08/18 04:30:44;;;;;;;22.20;20.80;;;23.90;90.60;;;;;;2600846;54;20573;-59
2021/08/18 04:33:16;;;;;;;24.57;22.83;;;23.90;90.60;;;;;;2600331;54;21222;-58
2021/08/18 04:35:45;;;;;;;22.73;21.20;;;23.90;90.70;;;;;;2600934;54;20418;-58
2021/08/18 04:38:14;;;;;;;23.40;21.87;;;23.90;90.70;;;;;;2599661;54;20405;-59
2021/08/18 04:40:43;;;;;;;22.77;21.20;;;23.90;90.70;;;;;;2601611;54;20541;-58
2021/08/18 04:43:15;;;;;;;23.20;21.50;;;23.90;90.70;;;;;;2597660;54;20402;-59
2021/08/18 04:45:45;;;;;;;23.53;21.70;;;23.90;90.70;;;;;;2599086;54;20395;-57
2021/08/18 04:48:17;;;;;;;23.87;22.17;;;23.90;90.70;;;;;;2597033;39;20725;-59
2021/08/18 04:50:46;;;;;;;22.80;21.20;;;23.90;90.70;;;;;;2596595;39;20634;-58
2021/08/18 04:53:15;;;;;;;23.73;22.10;;;23.90;90.80;;;;;;2595651;54;21015;-57
2021/08/18 04:55:45;;;;;;;23.40;21.80;;;23.90;90.70;;;;;;2596063;54;20510;-58
2021/08/18 04:58:14;;;;;;;21.20;19.90;;;23.90;90.70;;;;;;2593830;54;20449;-58
2021/08/18 05:00:43;;;;;;;22.73;21.23;;;23.90;90.80;;;;;;2594050;39;20737;-58
2021/08/18 05:03:17;;;;;;;23.63;21.97;;;23.90;90.80;;;;;;2593470;39;20724;-59
2021/08/18 05:05:46;;;;;;;24.07;22.40;;;23.90;90.80;;;;;;2592537;54;20414;-58
2021/08/18 05:08:15;;;;;;;23.87;22.17;;;23.90;90.80;;;;;;2593346;54;20962;-57
2021/08/18 05:10:44;;;;;;;22.73;21.23;;;23.90;90.80;;;;;;2593289;39;20697;-59
2021/08/18 05:13:13;;;;;;;23.40;21.70;;;23.90;90.80;;;;;;2593296;54;20399;-59
2021/08/18 05:15:43;;;;;;;23.50;21.60;;;23.90;90.80;;;;;;2593691;54;20401;-58
2021/08/18 05:18:12;;;;;;;24.37;22.47;;;23.90;90.80;;;;;;2589300;47;20491;-58
2021/08/18 05:20:44;;;;;;;22.90;21.20;;;23.90;90.90;;;;;;2589282;54;21388;-59
2021/08/18 05:23:13;;;;;;;24.13;22.57;;;23.90;90.80;;;;;;2584357;54;20417;-59
2021/08/18 05:25:42;;;;;;;22.87;21.27;;;23.90;90.80;;;;;;2586029;47;20409;-58
2021/08/18 05:28:13;;;;;;;22.83;21.20;;;23.90;90.80;;;;;;2587365;39;20633;-58
2021/08/18 05:30:43;;;;;;;23.80;22.10;;;23.90;90.90;;;;;;2582368;54;20912;-58
2021/08/18 05:33:12;;;;;;;23.50;21.80;;;23.90;90.90;;;;;;2582654;54;20521;-58
2021/08/18 05:35:44;;;;;;;23.40;21.80;;;23.90;90.90;;;;;;2577780;54;20430;-58
2021/08/18 05:38:13;;;;;;;23.83;22.10;;;23.90;90.90;;;;;;2577284;54;20711;-58
2021/08/18 05:40:42;;;;;;;22.33;20.73;;;23.90;90.90;;;;;;2577793;39;20941;-56
2021/08/18 05:43:15;;;;;;;22.10;20.70;;;23.90;90.90;;;;;;2578201;39;20693;-58
2021/08/18 05:45:44;;;;;;;23.67;22.07;;;23.90;90.90;;;;;;2578745;54;20418;-58
2021/08/18 05:48:13;;;;;;;23.17;21.47;;;23.90;90.90;;;;;;2577295;54;20507;-59
2021/08/18 05:50:44;;;;;;;22.97;21.27;;;23.90;90.90;;;;;;2579059;54;20981;-57
2021/08/18 05:53:18;;;;;;;24.23;21.93;;;23.90;90.90;;;;;;2574861;39;20737;-59
2021/08/18 05:55:49;;;;;;;21.97;20.47;;;23.90;90.90;;;;;;2578117;47;20802;-58
2021/08/18 05:58:19;;;;;;;22.23;20.50;;;23.90;91.00;;;;;;2571695;54;20406;-58
2021/08/18 06:00:48;;;;;;;21.90;20.30;;;23.90;91.00;;;;;;2571981;54;21222;-59
2021/08/18 06:03:17;;;;;;;22.30;20.53;;;23.90;91.00;;;;;;2573222;47;21172;-58
2021/08/18 06:05:49;;;;;;;22.00;20.40;;;23.90;91.00;;;;;;2570961;54;20949;-59
2021/08/18 06:08:18;;;;;;;21.97;20.40;;;23.90;91.00;;;;;;2569969;54;20394;-58
2021/08/18 06:10:47;;;;;;;21.83;20.20;;;23.90;90.90;;;;;;2572564;54;21130;-58
2021/08/18 06:13:17;;;;;;;23.30;21.57;;;23.90;90.90;;;;;;2566008;54;20391;-59
2021/08/18 06:15:46;;;;;;;22.53;20.90;;;23.90;91.00;;;;;;2572868;54;20816;-59
2021/08/18 06:18:15;;;;;;;22.87;21.17;;;23.90;90.90;;;;;;2572710;39;20655;-58
2021/08/18 06:20:44;;;;;;;23.80;22.00;;;23.90;90.90;;;;;;2570200;54;20489;-59
2021/08/18 06:23:20;;;;;;;22.27;20.40;;;23.90;91.00;;;;;;2573029;54;20960;-60
2021/08/18 06:25:51;;;;;;;24.60;22.00;;;23.90;91.00;;;;;;2575226;54;20778;-59
2021/08/18 06:28:20;;;;;;;23.20;20.80;;;23.90;91.10;;;;;;2574213;54;20907;-58
2021/08/18 06:30:49;;;;;;;22.87;20.70;;;23.90;91.10;;;;;;2571813;54;20684;-58
2021/08/18 06:33:19;;;;;;;24.10;21.60;;;23.90;91.10;;;;;;2572724;54;20395;-56
2021/08/18 06:35:48;;;;;;;24.53;22.30;;;23.90;91.10;;;;;;2571166;54;20778;-58
2021/08/18 06:38:20;;;;;;;24.20;22.20;;;23.90;91.10;;;;;;2567922;54;20791;-57
2021/08/18 06:40:49;;;;;;;23.47;21.73;;;23.90;91.20;;;;;;2564751;39;20613;-58
2021/08/18 06:43:18;;;;;;;25.47;23.10;;;23.90;91.20;;;;;;2569611;54;20399;-59
2021/08/18 06:45:47;;;;;;;26.07;23.83;;;24.00;91.20;;;;;;2572183;39;20661;-61
2021/08/18 06:48:22;;;;;;;22.47;20.67;;;24.00;91.20;;;;;;2572609;39;20692;-61
2021/08/18 06:50:51;;;;;;;23.23;21.43;;;24.00;91.20;;;;;;2568281;39;20675;-59
2021/08/18 06:53:23;;;;;;;25.37;23.03;;;24.00;91.30;;;;;;2569406;54;21045;-60
2021/08/18 06:55:52;;;;;;;24.90;22.80;;;24.00;91.20;;;;;;2575216;54;21056;-60
2021/08/18 06:58:21;;;;;;;24.77;22.57;;;24.00;91.30;;;;;;2573004;54;20398;-60
2021/08/18 07:00:50;;;;;;;24.17;22.03;;;24.00;91.30;;;;;;2569116;47;20829;-60
2021/08/18 07:03:20;;;;;;;23.90;22.10;;;24.00;91.30;;;;;;2572418;54;20741;-60
2021/08/18 07:05:49;;;;;;;24.03;22.07;;;24.00;91.30;;;;;;2568819;54;20407;-60
2021/08/18 07:08:18;;;;;;;24.00;21.70;;;24.00;91.30;;;;;;2563588;54;20889;-59
2021/08/18 07:10:51;;;;;;;24.50;22.60;;;24.00;91.30;;;;;;2570181;54;21228;-59
2021/08/18 07:13:20;;;;;;;22.53;20.83;;;24.00;91.30;;;;;;2565675;47;21332;-58
2021/08/18 07:15:50;;;;;;;23.47;21.57;;;24.10;91.40;;;;;;2563606;54;21187;-59
2021/08/18 07:18:19;;;;;;;22.70;20.70;;;24.00;91.30;;;;;;2563002;54;20410;-60
2021/08/18 07:20:50;;;;;;;22.67;20.87;;;24.00;91.40;;;;;;2563563;47;20434;-60
2021/08/18 07:23:19;;;;;;;24.03;22.07;;;24.00;91.30;;;;;;2564825;39;20939;-60
2021/08/18 07:25:51;;;;;;;24.33;22.33;;;24.00;91.40;;;;;;2564562;54;20686;-60
2021/08/18 07:28:20;;;;;;;22.47;20.73;;;24.00;91.40;;;;;;2567307;54;20769;-60
2021/08/18 07:30:49;;;;;;;23.27;21.57;;;24.00;91.40;;;;;;2565411;54;20917;-60
2021/08/18 07:33:18;;;;;;;23.40;21.40;;;24.00;91.40;;;;;;2564161;47;20973;-60
2021/08/18 07:35:48;;;;;;;22.93;21.33;;;24.00;91.40;;;;;;2559721;39;20563;-60
2021/08/18 07:38:17;;;;;;;23.37;21.63;;;24.00;91.40;;;;;;2553666;54;20383;-59
2021/08/18 07:40:46;;;;;;;22.43;20.63;;;24.00;91.40;;;;;;2561605;54;20948;-60
2021/08/18 07:43:21;;;;;;;23.07;21.30;;;24.00;91.40;;;;;;2566647;39;20591;-60
2021/08/18 07:45:54;;;;;;;22.87;21.17;;;24.00;91.40;;;;;;2568200;39;20692;-60
2021/08/18 07:48:23;;;;;;;22.73;21.00;;;24.00;91.40;;;;;;2567626;51;21094;-60
2021/08/18 07:50:53;;;;;;;24.30;22.50;;;24.00;91.40;;;;;;2565008;39;20769;-60
2021/08/18 07:53:22;;;;;;;23.00;21.10;;;24.00;91.40;;;;;;2568695;54;20887;-59
2021/08/18 07:55:51;;;;;;;24.17;22.23;;;24.00;91.40;;;;;;2560492;54;20884;-60
2021/08/18 07:58:22;;;;;;;24.60;22.70;;;24.00;91.40;;;;;;2560760;39;20600;-59
2021/08/18 08:00:52;;;;;;;23.00;21.30;;;24.00;91.40;;;;;;2568573;39;20644;-60
2021/08/18 08:03:21;;;;;;;23.40;21.60;;;24.00;91.50;;;;;;2563701;54;20407;-60
2021/08/18 08:05:51;;;;;;;23.03;21.33;;;24.00;91.50;;;;;;2559782;48;20569;-60
2021/08/18 08:08:20;;;;;;;24.07;22.07;;;24.00;91.50;;;;;;2569331;54;20395;-60
2021/08/18 08:10:49;;;;;;;22.00;20.50;;;24.00;91.50;;;;;;2565469;47;21005;-59
2021/08/18 08:13:18;;;;;;;23.83;22.13;;;24.00;91.60;;;;;;2566039;54;20883;-61
2021/08/18 08:15:50;;;;;;;23.77;22.07;;;24.00;91.60;;;;;;2565934;54;20391;-60
2021/08/18 08:18:20;;;;;;;23.27;21.60;;;24.10;91.60;;;;;;2567199;54;20398;-60
2021/08/18 08:20:50;;;;;;;23.87;22.07;;;24.00;91.60;;;;;;2551940;54;20894;-61
2021/08/18 08:23:25;;;;;;;23.00;21.40;;;24.00;91.60;;;;;;2564359;39;20597;-61
2021/08/18 08:25:55;;;;;;;23.07;21.17;;;24.00;91.60;;;;;;2564678;54;20406;-61
2021/08/18 08:28:25;;;;;;;23.47;21.60;;;24.00;91.60;;;;;;2568301;39;20622;-61
2021/08/18 08:30:58;;;;;;;22.30;20.70;;;24.00;91.60;;;;;;2563196;39;21109;-61
2021/08/18 08:33:27;;;;;;;23.90;22.10;;;24.00;91.60;;;;;;2564874;47;20411;-60
2021/08/18 08:35:56;;;;;;;23.93;22.03;;;24.00;91.70;;;;;;2563668;39;20707;-61
2021/08/18 08:38:27;;;;;;;23.50;21.70;;;24.10;91.70;;;;;;2562141;39;20789;-59
2021/08/18 08:40:57;;;;;;;23.20;21.20;;;24.10;91.70;;;;;;2567248;39;20768;-63
2021/08/18 08:43:27;;;;;;;23.90;22.10;;;24.10;91.70;;;;;;2562749;54;20454;-61
2021/08/18 08:45:59;;;;;;;24.77;22.90;;;24.10;91.70;;;;;;2566077;54;20542;-62
2021/08/18 08:48:29;;;;;;;24.27;22.07;;;24.10;91.70;;;;;;2568392;54;20453;-61
2021/08/18 08:51:00;;;;;;;23.73;22.03;;;24.10;91.70;;;;;;2563762;54;20477;-60
2021/08/18 08:53:33;;;;;;;25.60;22.37;;;24.10;91.80;;;;;;2571110;54;20399;-61
2021/08/18 08:56:03;;;;;;;24.77;22.83;;;24.10;91.80;;;;;;2565602;54;20395;-60
2021/08/18 08:58:33;;;;;;;22.77;20.67;;;24.10;91.80;;;;;;2566628;39;20819;-61
2021/08/18 09:01:05;;;;;;;23.47;21.30;;;24.10;91.80;;;;;;2566325;54;20419;-62
2021/08/18 09:03:38;;;;;;;23.57;21.77;;;24.10;91.80;;;;;;2566782;39;20710;-60
2021/08/18 09:06:09;;;;;;;23.83;22.13;;;24.10;91.80;;;;;;2563494;54;20438;-61
2021/08/18 09:08:51;;;;;;;23.60;21.80;;;24.10;91.80;;;;;;2562916;54;21306;-61
2021/08/18 09:11:23;;;;;;;23.90;22.20;;;24.10;91.80;;;;;;2566802;39;20720;-60
2021/08/18 09:13:55;;;;;;;23.20;21.20;;;24.10;91.80;;;;;;2561763;54;20557;-61
2021/08/18 09:16:36;;;;;;;23.27;21.40;;;24.10;91.80;;;;;;2560562;54;20395;-61
2021/08/18 09:19:06;;;;;;;21.47;19.97;;;24.10;91.80;;;;;;2561154;54;20430;-60
2021/08/18 09:21:37;;;;;;;23.17;21.37;;;24.10;91.90;;;;;;2567992;54;20462;-61
2021/08/18 09:24:24;;;;;;;21.00;19.43;;;24.10;91.80;;;;;;2570494;54;20394;-61
2021/08/18 09:26:56;;;;;;;23.47;21.77;;;24.10;91.90;;;;;;2563972;54;20405;-61
2021/08/18 09:29:33;;;;;;;20.93;19.43;;;24.10;91.90;;;;;;2569385;39;21171;-61
2021/08/18 09:32:32;;;;;;;24.07;22.20;;;24.10;91.90;;;;;;2561980;39;20755;-61
2021/08/18 09:35:04;;;;;;;22.10;20.40;;;24.10;91.90;;;;;;2565128;54;20922;-61
2021/08/18 09:37:35;;;;;;;22.67;20.90;;;24.10;91.90;;;;;;2564318;54;20525;-61
2021/08/18 09:40:18;;;;;;;23.13;21.40;;;24.10;91.90;;;;;;2568366;54;20401;-60
2021/08/18 09:42:47;;;;;;;22.97;21.30;;;24.10;91.90;;;;;;2573789;39;20834;-60
2021/08/18 09:45:25;;;;;;;22.53;20.67;;;24.10;91.90;;;;;;2567000;54;20395;-60
2021/08/18 09:48:07;;;;;;;22.33;20.67;;;24.10;91.90;;;;;;2562585;54;21289;-60
2021/08/18 09:50:45;;;;;;;22.63;20.60;;;24.10;91.90;;;;;;2570721;54;21499;-60
2021/08/18 09:53:18;;;;;;;22.27;20.67;;;24.10;91.90;;;;;;2572690;46;20426;-60
2021/08/18 09:56:00;;;;;;;21.67;20.17;;;24.10;91.90;;;;;;2569324;39;20581;-60
2021/08/18 09:58:32;;;;;;;21.20;19.60;;;24.10;92.10;;;;;;2561388;54;21081;-60
2021/08/18 10:01:11;;;;;;;21.90;20.20;;;24.10;92.00;;;;;;2563517;39;20776;-59
2021/08/18 10:03:49;;;;;;;22.73;21.03;;;24.10;92.00;;;;;;2567118;54;20514;-60
2021/08/18 10:06:19;;;;;;;22.83;21.17;;;24.10;92.00;;;;;;2571988;54;20422;-61
2021/08/18 10:08:54;;;;;;;23.30;21.40;;;24.10;92.00;;;;;;2570482;54;20512;-62
2021/08/18 10:11:25;;;;;;;22.27;20.67;;;24.10;92.00;;;;;;2569590;54;20402;-62
2021/08/18 10:13:55;;;;;;;23.20;21.40;;;24.10;92.00;;;;;;2571301;54;20422;-62
2021/08/18 10:16:24;;;;;;;21.93;20.33;;;24.10;92.10;;;;;;2571655;54;20470;-62
2021/08/18 10:19:06;;;;;;;22.20;20.60;;;24.10;92.10;;;;;;2577084;54;20506;-62
2021/08/18 10:21:37;;;;;;;21.30;19.77;;;24.10;92.10;;;;;;2570735;54;20549;-62
2021/08/18 10:24:07;;;;;;;20.43;19.10;;;24.10;92.10;;;;;;2567232;39;20871;-62
2021/08/18 10:26:53;;;;;;;21.60;20.20;;;24.10;92.10;;;;;;2571788;51;20446;-62
2021/08/18 10:29:34;;;;;;;21.73;20.23;;;24.10;92.10;;;;;;2571848;54;20423;-60
2021/08/18 10:32:05;;;;;;;22.70;20.90;;;24.10;92.10;;;;;;2569443;54;20446;-60
2021/08/18 10:34:40;;;;;;;21.53;19.93;;;24.10;92.10;;;;;;2572034;39;21081;-59
2021/08/18 10:37:27;;;;;;;22.57;21.03;;;24.10;92.20;;;;;;2571115;54;20448;-60
2021/08/18 10:39:59;;;;;;;21.90;20.20;;;24.10;92.20;;;;;;2574948;54;20457;-60
2021/08/18 10:42:37;;;;;;;20.50;19.10;;;24.10;92.20;;;;;;2571311;54;20401;-60
2021/08/18 10:45:36;;;;;;;19.23;18.10;;;24.10;92.20;;;;;;2574608;54;20414;-60
2021/08/18 10:48:06;;;;;;;21.53;19.80;;;24.10;92.20;;;;;;2572305;54;21232;-60
2021/08/18 10:50:50;;;;;;;22.20;20.70;;;24.10;92.20;;;;;;2571807;47;20912;-62
2021/08/18 10:53:37;;;;;;;21.43;19.73;;;24.10;92.20;;;;;;2574434;54;20433;-62
2021/08/18 10:56:37;;;;;;;20.70;19.40;;;24.10;92.20;;;;;;2571443;39;21114;-62
2021/08/18 10:59:36;;;;;;;20.50;19.00;;;24.10;92.60;;;;;;2570217;54;20849;-61
2021/08/18 11:02:06;;;;;;;21.07;19.67;;;24.10;92.20;;;;;;2577474;54;20435;-62
2021/08/18 11:04:45;;;;;;;20.87;19.37;;;24.10;92.30;;;;;;2572314;54;20395;-61
2021/08/18 11:07:19;;;;;;;19.83;18.43;;;24.10;92.30;;;;;;2575969;54;20963;-61
2021/08/18 11:10:03;;;;;;;19.63;18.33;;;24.10;92.30;;;;;;2575943;54;20430;-61
2021/08/18 11:12:57;;;;;;;20.47;19.07;;;24.10;92.30;;;;;;2572828;54;20430;-62
2021/08/18 11:15:55;;;;;;;19.07;17.77;;;24.10;92.30;;;;;;2577335;54;20445;-61
2021/08/18 11:18:25;;;;;;;20.23;18.73;;;24.10;92.60;;;;;;2578197;54;20920;-61
2021/08/18 11:20:56;;;;;;;19.43;18.10;;;24.10;92.30;;;;;;2579393;54;20441;-61
2021/08/18 11:23:35;;;;;;;20.23;18.80;;;24.10;92.30;;;;;;2581536;54;20420;-61
2021/08/18 11:26:07;;;;;;;20.27;18.80;;;24.10;92.30;;;;;;2577106;54;20501;-61
2021/08/18 11:28:39;;;;;;;19.80;18.30;;;24.10;92.30;;;;;;2573133;54;20445;-61
2021/08/18 11:31:15;;;;;;;18.93;17.73;;;24.10;92.30;;;;;;2574954;47;20505;-59
2021/08/18 11:33:44;;;;;;;20.23;18.53;;;24.10;92.40;;;;;;2574631;47;20589;-61
2021/08/18 11:36:20;;;;;;;19.33;17.87;;;24.10;92.40;;;;;;2573449;31;20877;-61
2021/08/18 11:39:02;;;;;;;18.60;17.30;;;24.10;92.40;;;;;;2570781;54;20439;-61
2021/08/18 11:41:40;;;;;;;19.07;17.87;;;24.10;92.40;;;;;;2574934;47;20446;-62
2021/08/18 11:44:11;;;;;;;19.17;17.80;;;24.10;92.40;;;;;;2575727;39;20691;-61
2021/08/18 11:46:40;;;;;;;19.33;17.83;;;24.10;92.40;;;;;;2573665;54;20411;-61
2021/08/18 11:49:10;;;;;;;18.90;17.30;;;24.10;92.50;;;;;;2575751;54;20422;-61
2021/08/18 11:51:40;;;;;;;18.87;17.60;;;24.10;92.40;;;;;;2579008;54;20457;-61
2021/08/18 11:54:12;;;;;;;18.67;17.50;;;24.10;92.50;;;;;;2579400;39;21265;-62
2021/08/18 11:56:41;;;;;;;18.20;17.20;;;24.10;92.50;;;;;;2575977;54;20534;-61
2021/08/18 11:59:10;;;;;;;19.00;17.87;;;24.10;92.50;;;;;;2573185;54;20430;-61
2021/08/18 12:01:40;;;;;;;18.50;17.30;;;24.10;92.50;;;;;;2571140;54;20371;-61
2021/08/18 12:04:10;;;;;;;19.90;18.53;;;24.10;92.50;;;;;;2573030;54;20542;-61
2021/08/18 12:06:40;;;;;;;18.20;17.00;;;24.10;92.50;;;;;;2573809;54;20430;-61
2021/08/18 12:09:24;;;;;;;17.20;16.03;;;24.10;92.90;;;;;;2573129;54;20419;-61
2021/08/18 12:12:08;;;;;;;17.97;16.73;;;24.10;92.60;;;;;;2573925;54;20430;-61
2021/08/18 12:14:45;;;;;;;19.00;17.50;;;24.10;92.60;;;;;;2574736;39;20839;-61
2021/08/18 12:17:15;;;;;;;18.40;17.27;;;24.10;92.70;;;;;;2576887;54;20374;-61
2021/08/18 12:19:46;;;;;;;17.70;16.50;;;24.10;92.60;;;;;;2571552;31;20863;-62
2021/08/18 12:22:20;;;;;;;17.87;16.83;;;24.10;92.60;;;;;;2580080;54;20419;-61
2021/08/18 12:24:55;;;;;;;17.87;16.77;;;24.10;92.70;;;;;;2575525;54;21726;-61
2021/08/18 12:27:27;;;;;;;17.20;16.20;;;24.10;92.60;;;;;;2571441;54;20398;-61
2021/08/18 12:30:04;;;;;;;17.20;16.03;;;24.10;92.60;;;;;;2572839;39;21063;-62
2021/08/18 12:32:34;;;;;;;17.50;16.37;;;24.20;92.70;;;;;;2575451;54;20442;-61
2021/08/18 12:35:06;;;;;;;17.40;16.50;;;24.10;92.70;;;;;;2576354;54;20378;-61
2021/08/18 12:37:38;;;;;;;17.40;16.40;;;24.20;92.70;;;;;;2573205;51;20466;-61
2021/08/18 12:40:13;;;;;;;16.57;15.67;;;24.20;92.70;;;;;;2577568;54;20410;-61
2021/08/18 12:42:44;;;;;;;17.07;16.07;;;24.20;92.80;;;;;;2579867;54;20418;-61
2021/08/18 12:45:15;;;;;;;16.27;15.37;;;24.20;92.80;;;;;;2577002;54;20402;-60
2021/08/18 12:47:47;;;;;;;15.10;14.30;;;24.20;92.80;;;;;;2572486;54;20570;-60
2021/08/18 12:50:29;;;;;;;15.80;14.90;;;24.20;92.80;;;;;;2574073;54;20458;-62